WZZ45 EDDN-LSZH
Flight info
| Callsign | WZZ45 |
|---|---|
| Flight time | 0h 38m |
| Altitude | 24000 |
| Route | BOLSI1G BOLSI Y166 DKB N869 GUPIN/N0400F220 L173 LBU DCT SOLGO/N0399F230 T724 RILAX |
| Aircraft | A320/M-SDE3FGHIRWY/LB1 |
Departure
| Time | 2026-02-22 00:13 |
|---|---|
| Airport | Nuremberg Airport (EDDN) |
Arrival
| Time | 2026-02-22 00:52 |
|---|---|
| Airport | Zürich Airport (LSZH) |
| Time | Latitude | Longitude | Altitude | Speed | Heading |
|---|---|---|---|---|---|
| 2026-02-21 23:48 | 49.49495 | 11.08044 | 1026 ft | 0 kts | 188° |
| 2026-02-22 00:06 | 49.49510 | 11.08047 | 1025 ft | 2 kts | 185° |
| 2026-02-22 00:06 | 49.49526 | 11.08049 | 1027 ft | 2 kts | 178° |
| 2026-02-22 00:06 | 49.49542 | 11.08046 | 1027 ft | 2 kts | 161° |
| 2026-02-22 00:06 | 49.49557 | 11.08035 | 1026 ft | 2 kts | 119° |
| 2026-02-22 00:07 | 49.49562 | 11.08015 | 1028 ft | 1 kts | 99° |
| 2026-02-22 00:07 | 49.49562 | 11.08011 | 1028 ft | 0 kts | 98° |
| 2026-02-22 00:07 | 49.49562 | 11.08021 | 1027 ft | 0 kts | 98° |
| 2026-02-22 00:10 | 49.49557 | 11.08072 | 1026 ft | 13 kts | 99° |
| 2026-02-22 00:10 | 49.49539 | 11.08248 | 1027 ft | 20 kts | 98° |
| 2026-02-22 00:10 | 49.49593 | 11.08359 | 1032 ft | 15 kts | 19° |
| 2026-02-22 00:11 | 49.49618 | 11.08407 | 1034 ft | 3 kts | 89° |
| 2026-02-22 00:11 | 49.49597 | 11.08600 | 1036 ft | 29 kts | 97° |
| 2026-02-22 00:11 | 49.49566 | 11.08930 | 1038 ft | 34 kts | 98° |
| 2026-02-22 00:11 | 49.49535 | 11.09250 | 1044 ft | 30 kts | 98° |
| 2026-02-22 00:12 | 49.49589 | 11.09487 | 1049 ft | 24 kts | 56° |
| 2026-02-22 00:12 | 49.49699 | 11.09509 | 1052 ft | 21 kts | 294° |
| 2026-02-22 00:12 | 49.49715 | 11.09367 | 1049 ft | 0 kts | 279° |
| 2026-02-22 00:13 | 49.49745 | 11.09069 | 1044 ft | 66 kts | 278° |
| 2026-02-22 00:13 | 49.49846 | 11.08026 | 1031 ft | 128 kts | 278° |
| 2026-02-22 00:13 | 49.49992 | 11.06463 | 1210 ft | 159 kts | 277° |
| 2026-02-22 00:13 | 49.50182 | 11.04728 | 1748 ft | 168 kts | 278° |
| 2026-02-22 00:14 | 49.50407 | 11.02940 | 2441 ft | 172 kts | 279° |
| 2026-02-22 00:14 | 49.50657 | 11.01123 | 3163 ft | 177 kts | 281° |
| 2026-02-22 00:14 | 49.50894 | 10.99202 | 3800 ft | 190 kts | 277° |
| 2026-02-22 00:14 | 49.51053 | 10.97055 | 4282 ft | 214 kts | 278° |
| 2026-02-22 00:15 | 49.51241 | 10.94671 | 4915 ft | 232 kts | 278° |
| 2026-02-22 00:15 | 49.51128 | 10.92160 | 5802 ft | 243 kts | 257° |
| 2026-02-22 00:15 | 49.50425 | 10.89737 | 6741 ft | 251 kts | 250° |
| 2026-02-22 00:15 | 49.49665 | 10.87319 | 7627 ft | 253 kts | 250° |
| 2026-02-22 00:16 | 49.48893 | 10.84849 | 8506 ft | 258 kts | 250° |
| 2026-02-22 00:16 | 49.48111 | 10.82321 | 9374 ft | 264 kts | 250° |
| 2026-02-22 00:16 | 49.47266 | 10.79769 | 10216 ft | 274 kts | 242° |
| 2026-02-22 00:16 | 49.45916 | 10.77619 | 10955 ft | 289 kts | 220° |
| 2026-02-22 00:17 | 49.44020 | 10.76297 | 11465 ft | 318 kts | 197° |
| 2026-02-22 00:17 | 49.41709 | 10.76045 | 11710 ft | 347 kts | 185° |
| 2026-02-22 00:17 | 49.39233 | 10.76014 | 12102 ft | 363 kts | 184° |
| 2026-02-22 00:17 | 49.36680 | 10.76005 | 12734 ft | 370 kts | 184° |
| 2026-02-22 00:18 | 49.34089 | 10.75997 | 13450 ft | 375 kts | 185° |
| 2026-02-22 00:18 | 49.31465 | 10.75978 | 14162 ft | 379 kts | 185° |
| 2026-02-22 00:18 | 49.28838 | 10.75652 | 14778 ft | 378 kts | 197° |
| 2026-02-22 00:18 | 49.26379 | 10.74345 | 15384 ft | 373 kts | 213° |
| 2026-02-22 00:19 | 49.24265 | 10.72127 | 15986 ft | 366 kts | 229° |
| 2026-02-22 00:19 | 49.22636 | 10.69247 | 16571 ft | 360 kts | 243° |
| 2026-02-22 00:19 | 49.21533 | 10.65859 | 17263 ft | 354 kts | 257° |
| 2026-02-22 00:19 | 49.20883 | 10.62233 | 17952 ft | 354 kts | 261° |
| 2026-02-22 00:20 | 49.20267 | 10.58569 | 18631 ft | 357 kts | 261° |
| 2026-02-22 00:20 | 49.19639 | 10.54876 | 19229 ft | 361 kts | 261° |
| 2026-02-22 00:20 | 49.19002 | 10.51146 | 19819 ft | 365 kts | 261° |
| 2026-02-22 00:20 | 49.18356 | 10.47375 | 20409 ft | 369 kts | 261° |
| 2026-02-22 00:21 | 49.17699 | 10.43563 | 20992 ft | 373 kts | 261° |
| 2026-02-22 00:21 | 49.17034 | 10.39717 | 21567 ft | 377 kts | 261° |
| 2026-02-22 00:21 | 49.16359 | 10.35830 | 22121 ft | 380 kts | 261° |
| 2026-02-22 00:21 | 49.15676 | 10.31906 | 22649 ft | 384 kts | 262° |
| 2026-02-22 00:22 | 49.14985 | 10.27945 | 23167 ft | 389 kts | 260° |
| 2026-02-22 00:22 | 49.13987 | 10.24040 | 23681 ft | 401 kts | 250° |
| 2026-02-22 00:22 | 49.12480 | 10.20382 | 24093 ft | 414 kts | 239° |
| 2026-02-22 00:22 | 49.10673 | 10.16944 | 24249 ft | 415 kts | 238° |
| 2026-02-22 00:23 | 49.08833 | 10.13469 | 24294 ft | 426 kts | 238° |
| 2026-02-22 00:23 | 49.06962 | 10.09937 | 24292 ft | 430 kts | 238° |
| 2026-02-22 00:23 | 49.05075 | 10.06377 | 24295 ft | 432 kts | 238° |
| 2026-02-22 00:23 | 49.03182 | 10.02814 | 24294 ft | 433 kts | 238° |
| 2026-02-22 00:24 | 49.01288 | 9.99250 | 24295 ft | 433 kts | 238° |
| 2026-02-22 00:24 | 48.99395 | 9.95695 | 24297 ft | 433 kts | 238° |
| 2026-02-22 00:24 | 48.97499 | 9.92133 | 24296 ft | 433 kts | 238° |
| 2026-02-22 00:24 | 48.95604 | 9.88579 | 24293 ft | 433 kts | 237° |
| 2026-02-22 00:25 | 48.93706 | 9.85024 | 24295 ft | 433 kts | 238° |
| 2026-02-22 00:25 | 48.91849 | 9.81440 | 24296 ft | 429 kts | 242° |
| 2026-02-22 00:25 | 48.90385 | 9.77551 | 24294 ft | 420 kts | 252° |
| 2026-02-22 00:25 | 48.89432 | 9.73420 | 24295 ft | 411 kts | 262° |
| 2026-02-22 00:26 | 48.88977 | 9.69174 | 24277 ft | 404 kts | 271° |
| 2026-02-22 00:26 | 48.88999 | 9.64944 | 24265 ft | 398 kts | 280° |
| 2026-02-22 00:26 | 48.89314 | 9.60781 | 24270 ft | 397 kts | 281° |
| 2026-02-22 00:26 | 48.89631 | 9.56608 | 24273 ft | 398 kts | 281° |
| 2026-02-22 00:27 | 48.89942 | 9.52432 | 24274 ft | 398 kts | 281° |
| 2026-02-22 00:27 | 48.90250 | 9.48254 | 24278 ft | 398 kts | 281° |
| 2026-02-22 00:27 | 48.90499 | 9.44058 | 24278 ft | 402 kts | 275° |
| 2026-02-22 00:27 | 48.90363 | 9.41238 | 24280 ft | 408 kts | 266° |
| 2026-02-22 00:28 | 48.89536 | 9.37063 | 24284 ft | 419 kts | 251° |
| 2026-02-22 00:28 | 48.87956 | 9.33277 | 24290 ft | 433 kts | 236° |
| 2026-02-22 00:28 | 48.84812 | 9.29416 | 24289 ft | 450 kts | 214° |
| 2026-02-22 00:28 | 48.82898 | 9.28003 | 24290 ft | 453 kts | 211° |
| 2026-02-22 00:29 | 48.80043 | 9.25978 | 24290 ft | 453 kts | 211° |
| 2026-02-22 00:29 | 48.77182 | 9.23962 | 24290 ft | 454 kts | 211° |
| 2026-02-22 00:29 | 48.74316 | 9.21949 | 24291 ft | 454 kts | 211° |
| 2026-02-22 00:29 | 48.71448 | 9.19936 | 24294 ft | 454 kts | 210° |
| 2026-02-22 00:30 | 48.68580 | 9.17921 | 24285 ft | 455 kts | 211° |
| 2026-02-22 00:30 | 48.65710 | 9.15904 | 24288 ft | 455 kts | 211° |
| 2026-02-22 00:30 | 48.62882 | 9.13913 | 24281 ft | 454 kts | 211° |
| 2026-02-22 00:30 | 48.60018 | 9.11896 | 24297 ft | 454 kts | 211° |
| 2026-02-22 00:31 | 48.57154 | 9.09885 | 24306 ft | 454 kts | 210° |
| 2026-02-22 00:31 | 48.54289 | 9.07880 | 24312 ft | 454 kts | 210° |
| 2026-02-22 00:31 | 48.51424 | 9.05876 | 24332 ft | 454 kts | 210° |
| 2026-02-22 00:31 | 48.48559 | 9.03870 | 24336 ft | 454 kts | 210° |
| 2026-02-22 00:32 | 48.45699 | 9.01868 | 24347 ft | 453 kts | 211° |
| 2026-02-22 00:32 | 48.42839 | 8.99865 | 24348 ft | 453 kts | 210° |
| 2026-02-22 00:32 | 48.39977 | 8.97866 | 24347 ft | 453 kts | 210° |
| 2026-02-22 00:32 | 48.37116 | 8.95877 | 24354 ft | 453 kts | 210° |
| 2026-02-22 00:33 | 48.34255 | 8.93895 | 24355 ft | 453 kts | 210° |
| 2026-02-22 00:33 | 48.31434 | 8.91802 | 24350 ft | 449 kts | 216° |
| 2026-02-22 00:33 | 48.28869 | 8.89199 | 24360 ft | 443 kts | 223° |
| 2026-02-22 00:33 | 48.26400 | 8.86430 | 24359 ft | 443 kts | 223° |
| 2026-02-22 00:34 | 48.23925 | 8.83671 | 24361 ft | 443 kts | 223° |
| 2026-02-22 00:34 | 48.21444 | 8.80919 | 24368 ft | 443 kts | 223° |
| 2026-02-22 00:34 | 48.18963 | 8.78173 | 24367 ft | 443 kts | 223° |
| 2026-02-22 00:34 | 48.16481 | 8.75429 | 24368 ft | 444 kts | 222° |
| 2026-02-22 00:35 | 48.13991 | 8.72696 | 24379 ft | 444 kts | 222° |
| 2026-02-22 00:35 | 48.11493 | 8.69980 | 24378 ft | 444 kts | 222° |
| 2026-02-22 00:35 | 48.08993 | 8.67273 | 24368 ft | 444 kts | 222° |
| 2026-02-22 00:35 | 48.06491 | 8.64565 | 24371 ft | 444 kts | 222° |
| 2026-02-22 00:36 | 48.03991 | 8.61857 | 24371 ft | 444 kts | 222° |
| 2026-02-22 00:36 | 48.01496 | 8.59162 | 24286 ft | 439 kts | 221° |
| 2026-02-22 00:36 | 47.98820 | 8.56971 | 23861 ft | 441 kts | 207° |
| 2026-02-22 00:36 | 47.95817 | 8.55886 | 23112 ft | 449 kts | 189° |
| 2026-02-22 00:37 | 47.92692 | 8.56091 | 22483 ft | 452 kts | 172° |
| 2026-02-22 00:37 | 47.89707 | 8.57550 | 21853 ft | 453 kts | 155° |
| 2026-02-22 00:37 | 47.87081 | 8.60122 | 21264 ft | 451 kts | 141° |
| 2026-02-22 00:37 | 47.84661 | 8.63059 | 20657 ft | 448 kts | 141° |
| 2026-02-22 00:38 | 47.82258 | 8.65982 | 20061 ft | 445 kts | 141° |
| 2026-02-22 00:38 | 47.79868 | 8.68890 | 19477 ft | 442 kts | 142° |
| 2026-02-22 00:38 | 47.77489 | 8.71775 | 18873 ft | 441 kts | 142° |
| 2026-02-22 00:38 | 47.75112 | 8.74647 | 18199 ft | 439 kts | 142° |
| 2026-02-22 00:39 | 47.72749 | 8.77496 | 17565 ft | 436 kts | 142° |
| 2026-02-22 00:39 | 47.70401 | 8.80327 | 16931 ft | 433 kts | 142° |
| 2026-02-22 00:39 | 47.68100 | 8.83103 | 16283 ft | 431 kts | 142° |
| 2026-02-22 00:39 | 47.65752 | 8.85935 | 15618 ft | 429 kts | 142° |
| 2026-02-22 00:40 | 47.63484 | 8.88790 | 14966 ft | 427 kts | 136° |
| 2026-02-22 00:40 | 47.61576 | 8.92143 | 14327 ft | 425 kts | 124° |
| 2026-02-22 00:40 | 47.60114 | 8.95917 | 13518 ft | 422 kts | 117° |
| 2026-02-22 00:40 | 47.58415 | 8.99492 | 12323 ft | 429 kts | 136° |
| 2026-02-22 00:41 | 47.55928 | 9.01903 | 11323 ft | 428 kts | 161° |
| 2026-02-22 00:41 | 47.53111 | 9.02571 | 11048 ft | 390 kts | 187° |
| 2026-02-22 00:41 | 47.50680 | 9.01588 | 10964 ft | 342 kts | 213° |
| 2026-02-22 00:41 | 47.49055 | 8.99387 | 10888 ft | 299 kts | 243° |
| 2026-02-22 00:42 | 47.48514 | 8.96695 | 10821 ft | 264 kts | 275° |
| 2026-02-22 00:42 | 47.50584 | 8.89996 | 10672 ft | 240 kts | 298° |
| 2026-02-22 00:43 | 47.51383 | 8.87828 | 10626 ft | 240 kts | 298° |
| 2026-02-22 00:43 | 47.52183 | 8.85661 | 10567 ft | 240 kts | 298° |
| 2026-02-22 00:43 | 47.52982 | 8.83496 | 10523 ft | 240 kts | 298° |
| 2026-02-22 00:43 | 47.53782 | 8.81329 | 10471 ft | 240 kts | 298° |
| 2026-02-22 00:44 | 47.54582 | 8.79164 | 10404 ft | 240 kts | 298° |
| 2026-02-22 00:44 | 47.55389 | 8.76978 | 10003 ft | 247 kts | 298° |
| 2026-02-22 00:44 | 47.56224 | 8.74719 | 9349 ft | 250 kts | 298° |
| 2026-02-22 00:44 | 47.57051 | 8.72480 | 8805 ft | 246 kts | 298° |
| 2026-02-22 00:45 | 47.57868 | 8.70268 | 8281 ft | 243 kts | 298° |
| 2026-02-22 00:45 | 47.59225 | 8.65765 | 7159 ft | 241 kts | 281° |
| 2026-02-22 00:45 | 47.59427 | 8.63293 | 6514 ft | 243 kts | 275° |
| 2026-02-22 00:46 | 47.59522 | 8.60783 | 5855 ft | 245 kts | 272° |
| 2026-02-22 00:46 | 47.59591 | 8.58272 | 5367 ft | 238 kts | 271° |
| 2026-02-22 00:46 | 47.59656 | 8.55939 | 5300 ft | 216 kts | 271° |
| 2026-02-22 00:46 | 47.59726 | 8.53816 | 5213 ft | 197 kts | 271° |
| 2026-02-22 00:47 | 47.59797 | 8.51884 | 5123 ft | 180 kts | 271° |
| 2026-02-22 00:47 | 47.59868 | 8.50062 | 5044 ft | 175 kts | 271° |
| 2026-02-22 00:47 | 47.59941 | 8.48241 | 4961 ft | 178 kts | 271° |
| 2026-02-22 00:47 | 47.60014 | 8.46411 | 4879 ft | 178 kts | 270° |
| 2026-02-22 00:48 | 47.59798 | 8.44632 | 4793 ft | 177 kts | 245° |
| 2026-02-22 00:48 | 47.59047 | 8.43197 | 4705 ft | 180 kts | 220° |
| 2026-02-22 00:48 | 47.57904 | 8.42405 | 4564 ft | 187 kts | 195° |
| 2026-02-22 00:48 | 47.56552 | 8.42529 | 4086 ft | 207 kts | 162° |
| 2026-02-22 00:49 | 47.55413 | 8.43734 | 3984 ft | 194 kts | 142° |
| 2026-02-22 00:49 | 47.54486 | 8.45016 | 3957 ft | 174 kts | 143° |
| 2026-02-22 00:49 | 47.53603 | 8.46225 | 3578 ft | 175 kts | 143° |
| 2026-02-22 00:49 | 47.52769 | 8.47395 | 3410 ft | 159 kts | 142° |
| 2026-02-22 00:50 | 47.52012 | 8.48536 | 3217 ft | 152 kts | 141° |
| 2026-02-22 00:50 | 47.51259 | 8.49607 | 2833 ft | 149 kts | 144° |
| 2026-02-22 00:50 | 47.50488 | 8.50602 | 2414 ft | 144 kts | 143° |
| 2026-02-22 00:50 | 47.49724 | 8.51556 | 1978 ft | 144 kts | 140° |
| 2026-02-22 00:51 | 47.48987 | 8.52544 | 1732 ft | 143 kts | 138° |
| 2026-02-22 00:51 | 47.48251 | 8.53549 | 1479 ft | 144 kts | 137° |
| 2026-02-22 00:51 | 47.47547 | 8.54494 | 1399 ft | 122 kts | 136° |
| 2026-02-22 00:51 | 47.47055 | 8.55182 | 1385 ft | 73 kts | 137° |
| 2026-02-22 00:52 | 47.46804 | 8.55523 | 1397 ft | 26 kts | 139° |
| 2026-02-22 00:52 | 47.46637 | 8.55658 | 1401 ft | 29 kts | 158° |
| 2026-02-22 00:52 | 47.46467 | 8.55720 | 1398 ft | 20 kts | 168° |
| 2026-02-22 00:52 | 47.46348 | 8.55804 | 1405 ft | 7 kts | 134° |
| 2026-02-22 00:53 | 47.46305 | 8.55863 | 1405 ft | 9 kts | 137° |
| 2026-02-22 00:53 | 47.46303 | 8.55865 | 1405 ft | 0 kts | 137° |
| 2026-02-22 00:53 | 47.46251 | 8.55876 | 1407 ft | 11 kts | 230° |
| 2026-02-22 00:53 | 47.46222 | 8.55803 | 1406 ft | 5 kts | 235° |
| 2026-02-22 00:54 | 47.46181 | 8.55783 | 1406 ft | 7 kts | 188° |
| 2026-02-22 00:54 | 47.46152 | 8.55778 | 1408 ft | 0 kts | 186° |
| 2026-02-22 00:54 | 47.46143 | 8.55777 | 1403 ft | 3 kts | 186° |
| 2026-02-22 00:54 | 47.46142 | 8.55777 | 1403 ft | 0 kts | 186° |